sensor_id;sensor_type;location;lat;lon;timestamp;pressure;altitude;pressure_sealevel;temperature;humidity
20256;BME280;10286;59.364;18.016;2022-09-09T00:00:44;101851.03;;;11.18;99.73
20256;BME280;10286;59.364;18.016;2022-09-09T00:03:17;101841.94;;;11.22;98.65
20256;BME280;10286;59.364;18.016;2022-09-09T00:05:48;101837.09;;;11.28;96.37
20256;BME280;10286;59.364;18.016;2022-09-09T00:08:19;101839.28;;;11.34;96.00
20256;BME280;10286;59.364;18.016;2022-09-09T00:10:47;101838.97;;;11.39;95.38
20256;BME280;10286;59.364;18.016;2022-09-09T00:13:18;101837.72;;;11.44;94.64
20256;BME280;10286;59.364;18.016;2022-09-09T00:15:53;101832.94;;;11.49;93.25
20256;BME280;10286;59.364;18.016;2022-09-09T00:18:24;101838.75;;;11.54;92.23
20256;BME280;10286;59.364;18.016;2022-09-09T00:20:55;101838.38;;;11.60;94.23
20256;BME280;10286;59.364;18.016;2022-09-09T00:23:24;101839.19;;;11.61;94.03
20256;BME280;10286;59.364;18.016;2022-09-09T00:25:54;101827.56;;;11.63;92.44
20256;BME280;10286;59.364;18.016;2022-09-09T00:28:25;101835.78;;;11.71;92.27
20256;BME280;10286;59.364;18.016;2022-09-09T00:30:53;101837.47;;;11.72;91.25
20256;BME280;10286;59.364;18.016;2022-09-09T00:33:20;101840.75;;;11.76;92.90
20256;BME280;10286;59.364;18.016;2022-09-09T00:35:52;101827.31;;;11.79;91.15
20256;BME280;10286;59.364;18.016;2022-09-09T00:38:21;101821.06;;;11.80;89.30
20256;BME280;10286;59.364;18.016;2022-09-09T00:40:52;101827.81;;;11.84;89.30
20256;BME280;10286;59.364;18.016;2022-09-09T00:43:25;101823.88;;;11.89;89.07
20256;BME280;10286;59.364;18.016;2022-09-09T00:45:56;101828.13;;;11.92;88.46
20256;BME280;10286;59.364;18.016;2022-09-09T00:48:28;101829.59;;;11.95;87.40
20256;BME280;10286;59.364;18.016;2022-09-09T00:51:00;101820.22;;;12.02;86.50
20256;BME280;10286;59.364;18.016;2022-09-09T00:53:33;101817.50;;;12.04;85.57
20256;BME280;10286;59.364;18.016;2022-09-09T00:56:06;101812.78;;;12.07;84.93
20256;BME280;10286;59.364;18.016;2022-09-09T00:58:35;101812.56;;;12.10;84.07
20256;BME280;10286;59.364;18.016;2022-09-09T01:01:03;101812.97;;;12.17;83.47
20256;BME280;10286;59.364;18.016;2022-09-09T01:03:36;101809.13;;;12.21;84.42
20256;BME280;10286;59.364;18.016;2022-09-09T01:06:14;101808.16;;;12.22;83.47
20256;BME280;10286;59.364;18.016;2022-09-09T01:08:52;101815.91;;;12.25;83.57
20256;BME280;10286;59.364;18.016;2022-09-09T01:11:25;101804.22;;;12.27;83.22
20256;BME280;10286;59.364;18.016;2022-09-09T01:13:56;101803.25;;;12.28;83.03
20256;BME280;10286;59.364;18.016;2022-09-09T01:16:26;101807.50;;;12.31;82.82
20256;BME280;10286;59.364;18.016;2022-09-09T01:18:55;101802.19;;;12.31;83.07
20256;BME280;10286;59.364;18.016;2022-09-09T01:21:27;101797.53;;;12.34;84.59
20256;BME280;10286;59.364;18.016;2022-09-09T01:24:03;101795.00;;;12.33;84.94
20256;BME280;10286;59.364;18.016;2022-09-09T01:26:37;101792.56;;;12.30;85.94
20256;BME280;10286;59.364;18.016;2022-09-09T01:29:09;101794.25;;;12.31;85.94
20256;BME280;10286;59.364;18.016;2022-09-09T01:31:42;101794.88;;;12.34;86.22
20256;BME280;10286;59.364;18.016;2022-09-09T01:34:14;101790.41;;;12.35;86.87
20256;BME280;10286;59.364;18.016;2022-09-09T01:36:44;101791.38;;;12.34;87.44
20256;BME280;10286;59.364;18.016;2022-09-09T01:39:23;101784.28;;;12.34;87.44
20256;BME280;10286;59.364;18.016;2022-09-09T01:42:04;101787.53;;;12.38;88.55
20256;BME280;10286;59.364;18.016;2022-09-09T01:44:34;101792.84;;;12.38;88.03
20256;BME280;10286;59.364;18.016;2022-09-09T01:47:07;101785.84;;;12.37;87.88
20256;BME280;10286;59.364;18.016;2022-09-09T01:49:45;101789.22;;;12.39;88.27
20256;BME280;10286;59.364;18.016;2022-09-09T01:52:12;101795.97;;;12.43;88.51
20256;BME280;10286;59.364;18.016;2022-09-09T01:54:42;101786.25;;;12.43;87.99
20256;BME280;10286;59.364;18.016;2022-09-09T01:57:11;101787.94;;;12.44;89.05
20256;BME280;10286;59.364;18.016;2022-09-09T01:59:46;101782.41;;;12.47;88.90
20256;BME280;10286;59.364;18.016;2022-09-09T02:02:18;101780.59;;;12.48;89.06
20256;BME280;10286;59.364;18.016;2022-09-09T02:04:46;101777.81;;;12.49;90.15
20256;BME280;10286;59.364;18.016;2022-09-09T02:07:18;101777.97;;;12.48;90.18
20256;BME280;10286;59.364;18.016;2022-09-09T02:09:49;101774.22;;;12.50;89.56
20256;BME280;10286;59.364;18.016;2022-09-09T02:12:20;101774.84;;;12.54;90.67
20256;BME280;10286;59.364;18.016;2022-09-09T02:14:49;101765.94;;;12.55;90.32
20256;BME280;10286;59.364;18.016;2022-09-09T02:17:18;101765.94;;;12.55;91.13
20256;BME280;10286;59.364;18.016;2022-09-09T02:19:45;101764.00;;;12.57;90.67
20256;BME280;10286;59.364;18.016;2022-09-09T02:22:14;101764.50;;;12.62;90.94
20256;BME280;10286;59.364;18.016;2022-09-09T02:24:42;101758.13;;;12.64;90.72
20256;BME280;10286;59.364;18.016;2022-09-09T02:27:09;101762.56;;;12.64;91.77
20256;BME280;10286;59.364;18.016;2022-09-09T02:29:39;101756.19;;;12.66;91.33
20256;BME280;10286;59.364;18.016;2022-09-09T02:32:08;101759.72;;;12.67;91.75
20256;BME280;10286;59.364;18.016;2022-09-09T02:34:36;101758.75;;;12.68;91.59
20256;BME280;10286;59.364;18.016;2022-09-09T02:37:05;101758.50;;;12.71;91.49
20256;BME280;10286;59.364;18.016;2022-09-09T02:39:33;101753.69;;;12.76;91.50
20256;BME280;10286;59.364;18.016;2022-09-09T02:41:59;101745.75;;;12.76;91.51
20256;BME280;10286;59.364;18.016;2022-09-09T02:44:28;101742.97;;;12.77;91.88
20256;BME280;10286;59.364;18.016;2022-09-09T02:47:05;101754.31;;;12.79;91.89
20256;BME280;10286;59.364;18.016;2022-09-09T02:49:36;101750.56;;;12.82;91.39
20256;BME280;10286;59.364;18.016;2022-09-09T02:52:07;101752.97;;;12.85;91.99
20256;BME280;10286;59.364;18.016;2022-09-09T02:54:36;101750.22;;;12.86;91.33
20256;BME280;10286;59.364;18.016;2022-09-09T02:57:05;101745.72;;;12.87;92.26
20256;BME280;10286;59.364;18.016;2022-09-09T02:59:33;101748.28;;;12.88;91.88
20256;BME280;10286;59.364;18.016;2022-09-09T03:01:59;101740.94;;;12.92;91.95
20256;BME280;10286;59.364;18.016;2022-09-09T03:04:28;101739.25;;;12.91;92.18
20256;BME280;10286;59.364;18.016;2022-09-09T03:06:55;101738.19;;;12.93;91.88
20256;BME280;10286;59.364;18.016;2022-09-09T03:09:21;101729.16;;;12.96;91.71
20256;BME280;10286;59.364;18.016;2022-09-09T03:11:48;101733.59;;;12.95;91.99
20256;BME280;10286;59.364;18.016;2022-09-09T03:14:15;101732.66;;;12.96;91.69
20256;BME280;10286;59.364;18.016;2022-09-09T03:16:46;101733.25;;;13.00;91.40
20256;BME280;10286;59.364;18.016;2022-09-09T03:19:13;101734.22;;;12.99;91.49
20256;BME280;10286;59.364;18.016;2022-09-09T03:21:41;101728.69;;;13.02;91.77
20256;BME280;10286;59.364;18.016;2022-09-09T03:24:08;101720.00;;;13.00;91.82
20256;BME280;10286;59.364;18.016;2022-09-09T03:26:35;101719.28;;;12.98;91.78
20256;BME280;10286;59.364;18.016;2022-09-09T03:29:02;101709.66;;;12.97;92.18
20256;BME280;10286;59.364;18.016;2022-09-09T03:31:34;101720.34;;;12.95;92.29
20256;BME280;10286;59.364;18.016;2022-09-09T03:34:04;101721.47;;;12.93;92.44
20256;BME280;10286;59.364;18.016;2022-09-09T03:36:33;101717.09;;;12.92;93.17
20256;BME280;10286;59.364;18.016;2022-09-09T03:39:02;101713.50;;;12.93;92.61
20256;BME280;10286;59.364;18.016;2022-09-09T03:41:30;101708.22;;;12.93;92.42
20256;BME280;10286;59.364;18.016;2022-09-09T03:43:57;101706.50;;;12.92;93.05
20256;BME280;10286;59.364;18.016;2022-09-09T03:46:24;101710.09;;;12.91;93.41
20256;BME280;10286;59.364;18.016;2022-09-09T03:48:54;101705.75;;;12.90;93.53
20256;BME280;10286;59.364;18.016;2022-09-09T03:51:24;101710.84;;;12.93;93.40
20256;BME280;10286;59.364;18.016;2022-09-09T03:53:51;101704.69;;;12.92;93.81
20256;BME280;10286;59.364;18.016;2022-09-09T03:56:24;101707.09;;;12.95;93.80
20256;BME280;10286;59.364;18.016;2022-09-09T03:58:51;101702.41;;;12.99;93.53
20256;BME280;10286;59.364;18.016;2022-09-09T04:01:18;101703.13;;;13.01;94.32
20256;BME280;10286;59.364;18.016;2022-09-09T04:03:44;101704.81;;;13.02;94.10
20256;BME280;10286;59.364;18.016;2022-09-09T04:06:12;101705.53;;;13.04;93.82
20256;BME280;10286;59.364;18.016;2022-09-09T04:08:39;101693.84;;;13.06;94.21
20256;BME280;10286;59.364;18.016;2022-09-09T04:11:06;101692.91;;;13.07;93.87
20256;BME280;10286;59.364;18.016;2022-09-09T04:13:35;101691.69;;;13.11;93.12
20256;BME280;10286;59.364;18.016;2022-09-09T04:16:04;101696.63;;;13.16;93.08
20256;BME280;10286;59.364;18.016;2022-09-09T04:18:31;101701.69;;;13.19;92.92
20256;BME280;10286;59.364;18.016;2022-09-09T04:20:58;101697.09;;;13.21;93.35
20256;BME280;10286;59.364;18.016;2022-09-09T04:23:26;101702.28;;;13.22;92.87
20256;BME280;10286;59.364;18.016;2022-09-09T04:25:54;101698.66;;;13.23;92.76
20256;BME280;10286;59.364;18.016;2022-09-09T04:28:22;101699.38;;;13.25;92.89
20256;BME280;10286;59.364;18.016;2022-09-09T04:30:51;101693.84;;;13.28;92.85
20256;BME280;10286;59.364;18.016;2022-09-09T04:33:18;101708.66;;;13.31;91.92
20256;BME280;10286;59.364;18.016;2022-09-09T04:35:45;101698.63;;;13.34;91.51
20256;BME280;10286;59.364;18.016;2022-09-09T04:38:13;101698.63;;;13.34;92.87
20256;BME280;10286;59.364;18.016;2022-09-09T04:40:41;101699.75;;;13.32;92.88
20256;BME280;10286;59.364;18.016;2022-09-09T04:43:08;101698.06;;;13.31;92.45
20256;BME280;10286;59.364;18.016;2022-09-09T04:45:35;101702.25;;;13.33;92.63
20256;BME280;10286;59.364;18.016;2022-09-09T04:48:04;101697.56;;;13.37;91.80
20256;BME280;10286;59.364;18.016;2022-09-09T04:50:31;101701.66;;;13.41;91.97
20256;BME280;10286;59.364;18.016;2022-09-09T04:52:59;101699.00;;;13.41;91.28
20256;BME280;10286;59.364;18.016;2022-09-09T04:55:26;101700.81;;;13.40;91.17
20256;BME280;10286;59.364;18.016;2022-09-09T04:57:53;101690.56;;;13.36;91.58
20256;BME280;10286;59.364;18.016;2022-09-09T05:00:20;101700.69;;;13.42;91.61
20256;BME280;10286;59.364;18.016;2022-09-09T05:02:49;101705.63;;;13.46;90.35
20256;BME280;10286;59.364;18.016;2022-09-09T05:05:22;101702.47;;;13.52;90.37
20256;BME280;10286;59.364;18.016;2022-09-09T05:07:50;101708.38;;;13.56;89.43
20256;BME280;10286;59.364;18.016;2022-09-09T05:10:32;101710.63;;;13.60;87.81
20256;BME280;10286;59.364;18.016;2022-09-09T05:12:59;101702.44;;;13.63;88.24
20256;BME280;10286;59.364;18.016;2022-09-09T05:15:26;101706.66;;;13.65;86.15
20256;BME280;10286;59.364;18.016;2022-09-09T05:17:56;101710.25;;;13.75;84.73
20256;BME280;10286;59.364;18.016;2022-09-09T05:20:25;101707.19;;;13.80;83.82
20256;BME280;10286;59.364;18.016;2022-09-09T05:22:52;101704.63;;;13.89;82.39
20256;BME280;10286;59.364;18.016;2022-09-09T05:25:21;101712.56;;;14.00;80.14
20256;BME280;10286;59.364;18.016;2022-09-09T05:27:54;101717.47;;;14.16;79.28
20256;BME280;10286;59.364;18.016;2022-09-09T05:30:20;101718.84;;;14.31;78.51
20256;BME280;10286;59.364;18.016;2022-09-09T05:32:48;101714.44;;;14.41;77.60
20256;BME280;10286;59.364;18.016;2022-09-09T05:35:21;101718.91;;;14.40;74.58
20256;BME280;10286;59.364;18.016;2022-09-09T05:37:53;101722.66;;;14.38;72.78
20256;BME280;10286;59.364;18.016;2022-09-09T05:40:21;101718.69;;;14.32;72.14
20256;BME280;10286;59.364;18.016;2022-09-09T05:42:48;101723.03;;;14.33;70.96
20256;BME280;10286;59.364;18.016;2022-09-09T05:45:14;101720.88;;;14.38;70.67
20256;BME280;10286;59.364;18.016;2022-09-09T05:47:41;101718.97;;;14.50;69.77
20256;BME280;10286;59.364;18.016;2022-09-09T05:50:09;101725.72;;;14.54;69.02
20256;BME280;10286;59.364;18.016;2022-09-09T05:52:36;101725.84;;;14.52;69.06
20256;BME280;10286;59.364;18.016;2022-09-09T05:55:05;101732.38;;;14.48;68.31
20256;BME280;10286;59.364;18.016;2022-09-09T05:57:32;101731.28;;;14.51;67.87
20256;BME280;10286;59.364;18.016;2022-09-09T06:00:05;101727.13;;;14.58;67.17
20256;BME280;10286;59.364;18.016;2022-09-09T06:02:35;101724.44;;;14.78;65.87
20256;BME280;10286;59.364;18.016;2022-09-09T06:05:06;101725.34;;;14.88;65.49
20256;BME280;10286;59.364;18.016;2022-09-09T06:07:34;101719.06;;;14.89;64.82
20256;BME280;10286;59.364;18.016;2022-09-09T06:10:01;101722.81;;;14.87;65.01
20256;BME280;10286;59.364;18.016;2022-09-09T06:12:29;101729.69;;;14.89;62.55
20256;BME280;10286;59.364;18.016;2022-09-09T06:14:58;101726.06;;;14.90;62.26
20256;BME280;10286;59.364;18.016;2022-09-09T06:17:25;101731.06;;;14.84;62.20
20256;BME280;10286;59.364;18.016;2022-09-09T06:19:52;101725.66;;;14.95;62.04
20256;BME280;10286;59.364;18.016;2022-09-09T06:22:21;101727.41;;;15.05;61.66
20256;BME280;10286;59.364;18.016;2022-09-09T06:24:50;101728.53;;;15.12;61.50
20256;BME280;10286;59.364;18.016;2022-09-09T06:27:22;101727.84;;;15.10;61.17
20256;BME280;10286;59.364;18.016;2022-09-09T06:29:55;101725.88;;;14.82;60.69
20256;BME280;10286;59.364;18.016;2022-09-09T06:32:21;101721.34;;;14.94;60.59
20256;BME280;10286;59.364;18.016;2022-09-09T06:34:54;101723.25;;;15.22;59.85
20256;BME280;10286;59.364;18.016;2022-09-09T06:37:24;101735.16;;;15.18;59.64
20256;BME280;10286;59.364;18.016;2022-09-09T06:42:29;101725.47;;;15.46;59.12
20256;BME280;10286;59.364;18.016;2022-09-09T06:45:00;101722.81;;;15.46;59.38
20256;BME280;10286;59.364;18.016;2022-09-09T06:47:27;101717.56;;;15.94;57.03
20256;BME280;10286;59.364;18.016;2022-09-09T06:49:55;101723.94;;;17.49;52.74
20256;BME280;10286;59.364;18.016;2022-09-09T06:52:22;101725.97;;;16.27;56.06
20256;BME280;10286;59.364;18.016;2022-09-09T06:54:52;101730.38;;;19.12;48.71
20256;BME280;10286;59.364;18.016;2022-09-09T06:57:19;101733.66;;;21.63;42.50
20256;BME280;10286;59.364;18.016;2022-09-09T06:59:49;101728.66;;;19.78;45.56
20256;BME280;10286;59.364;18.016;2022-09-09T07:02:17;101729.72;;;20.65;43.00
20256;BME280;10286;59.364;18.016;2022-09-09T07:04:46;101728.16;;;19.07;45.71
20256;BME280;10286;59.364;18.016;2022-09-09T07:07:16;101745.19;;;19.24;47.07
20256;BME280;10286;59.364;18.016;2022-09-09T07:09:46;101739.19;;;19.71;44.80
20256;BME280;10286;59.364;18.016;2022-09-09T07:12:14;101735.75;;;17.91;48.37
20256;BME280;10286;59.364;18.016;2022-09-09T07:14:45;101728.84;;;19.84;45.49
20256;BME280;10286;59.364;18.016;2022-09-09T07:17:12;101726.25;;;21.26;40.97
20256;BME280;10286;59.364;18.016;2022-09-09T07:19:41;101732.53;;;21.11;38.93
20256;BME280;10286;59.364;18.016;2022-09-09T07:22:18;101733.16;;;21.59;38.58
20256;BME280;10286;59.364;18.016;2022-09-09T07:24:48;101729.16;;;23.48;35.20
20256;BME280;10286;59.364;18.016;2022-09-09T07:27:15;101738.94;;;22.09;36.54
20256;BME280;10286;59.364;18.016;2022-09-09T07:29:44;101736.06;;;20.00;40.98
20256;BME280;10286;59.364;18.016;2022-09-09T07:32:13;101739.91;;;18.38;44.24
20256;BME280;10286;59.364;18.016;2022-09-09T07:34:42;101736.41;;;19.47;43.06
20256;BME280;10286;59.364;18.016;2022-09-09T07:37:11;101758.47;;;18.83;42.90
20256;BME280;10286;59.364;18.016;2022-09-09T07:39:46;101736.09;;;21.42;38.37
20256;BME280;10286;59.364;18.016;2022-09-09T07:42:13;101741.19;;;23.81;34.03
20256;BME280;10286;59.364;18.016;2022-09-09T07:44:44;101727.13;;;24.00;32.58
20256;BME280;10286;59.364;18.016;2022-09-09T07:47:14;101741.09;;;23.89;33.35
20256;BME280;10286;59.364;18.016;2022-09-09T07:49:44;101739.13;;;24.60;32.60
20256;BME280;10286;59.364;18.016;2022-09-09T07:52:12;101746.91;;;24.69;32.00
20256;BME280;10286;59.364;18.016;2022-09-09T07:54:40;101732.63;;;23.92;33.69
20256;BME280;10286;59.364;18.016;2022-09-09T07:57:07;101753.59;;;23.03;35.60
20256;BME280;10286;59.364;18.016;2022-09-09T07:59:33;101751.38;;;20.55;39.89
20256;BME280;10286;59.364;18.016;2022-09-09T08:02:03;101749.91;;;18.54;45.40
20256;BME280;10286;59.364;18.016;2022-09-09T08:04:34;101745.63;;;17.91;48.26
20256;BME280;10286;59.364;18.016;2022-09-09T08:07:03;101750.69;;;18.29;48.80
20256;BME280;10286;59.364;18.016;2022-09-09T08:09:36;101756.00;;;22.98;38.91
20256;BME280;10286;59.364;18.016;2022-09-09T08:12:05;101748.59;;;21.57;38.41
20256;BME280;10286;59.364;18.016;2022-09-09T08:14:37;101751.38;;;19.24;43.52
20256;BME280;10286;59.364;18.016;2022-09-09T08:17:04;101758.47;;;18.22;46.19
20256;BME280;10286;59.364;18.016;2022-09-09T08:19:37;101751.97;;;17.63;48.04
20256;BME280;10286;59.364;18.016;2022-09-09T08:22:26;101758.66;;;17.13;50.20
20256;BME280;10286;59.364;18.016;2022-09-09T08:24:55;101767.56;;;17.04;51.19
20256;BME280;10286;59.364;18.016;2022-09-09T08:27:24;101763.59;;;17.98;49.05
20256;BME280;10286;59.364;18.016;2022-09-09T08:29:54;101758.06;;;20.19;43.42
20256;BME280;10286;59.364;18.016;2022-09-09T08:32:23;101775.56;;;18.64;47.07
20256;BME280;10286;59.364;18.016;2022-09-09T08:34:49;101772.94;;;19.48;44.39
20256;BME280;10286;59.364;18.016;2022-09-09T08:37:19;101765.97;;;20.69;42.17
20256;BME280;10286;59.364;18.016;2022-09-09T08:39:50;101761.75;;;20.02;42.40
20256;BME280;10286;59.364;18.016;2022-09-09T08:42:26;101770.28;;;20.06;43.13
20256;BME280;10286;59.364;18.016;2022-09-09T08:45:02;101770.50;;;19.04;44.45
20256;BME280;10286;59.364;18.016;2022-09-09T08:47:41;101759.00;;;17.64;47.82
20256;BME280;10286;59.364;18.016;2022-09-09T08:50:17;101763.25;;;17.20;49.85
20256;BME280;10286;59.364;18.016;2022-09-09T08:52:49;101762.47;;;17.01;51.28
20256;BME280;10286;59.364;18.016;2022-09-09T08:55:27;101762.09;;;16.87;53.07
20256;BME280;10286;59.364;18.016;2022-09-09T08:57:57;101763.13;;;16.67;53.85
20256;BME280;10286;59.364;18.016;2022-09-09T09:00:34;101775.78;;;18.18;50.03
20256;BME280;10286;59.364;18.016;2022-09-09T09:03:09;101766.78;;;19.22;45.95
20256;BME280;10286;59.364;18.016;2022-09-09T09:05:42;101766.69;;;17.94;49.60
20256;BME280;10286;59.364;18.016;2022-09-09T09:08:16;101781.03;;;17.03;52.43
20256;BME280;10286;59.364;18.016;2022-09-09T09:10:49;101773.66;;;16.68;53.49
20256;BME280;10286;59.364;18.016;2022-09-09T09:13:18;101770.47;;;19.63;46.58
20256;BME280;10286;59.364;18.016;2022-09-09T09:15:48;101772.28;;;22.00;40.26
20256;BME280;10286;59.364;18.016;2022-09-09T09:18:18;101762.44;;;19.21;44.09
20256;BME280;10286;59.364;18.016;2022-09-09T09:20:50;101773.91;;;19.14;45.34
20256;BME280;10286;59.364;18.016;2022-09-09T09:23:21;101763.44;;;20.59;41.59
20256;BME280;10286;59.364;18.016;2022-09-09T09:26:05;101767.06;;;18.16;47.66
20256;BME280;10286;59.364;18.016;2022-09-09T09:28:35;101754.00;;;17.51;49.99
20256;BME280;10286;59.364;18.016;2022-09-09T09:31:10;101760.13;;;19.68;45.13
20256;BME280;10286;59.364;18.016;2022-09-09T09:33:44;101772.94;;;19.98;44.76
20256;BME280;10286;59.364;18.016;2022-09-09T09:36:18;101775.56;;;18.90;46.90
20256;BME280;10286;59.364;18.016;2022-09-09T09:38:52;101762.66;;;18.25;49.08
20256;BME280;10286;59.364;18.016;2022-09-09T09:41:36;101771.91;;;19.41;46.61
20256;BME280;10286;59.364;18.016;2022-09-09T09:44:04;101764.84;;;19.07;45.78
20256;BME280;10286;59.364;18.016;2022-09-09T09:46:35;101750.34;;;18.92;47.37
20256;BME280;10286;59.364;18.016;2022-09-09T09:49:05;101755.69;;;17.97;48.95
20256;BME280;10286;59.364;18.016;2022-09-09T09:51:37;101750.34;;;18.14;48.35
20256;BME280;10286;59.364;18.016;2022-09-09T09:54:08;101741.22;;;17.72;49.35
20256;BME280;10286;59.364;18.016;2022-09-09T09:56:41;101744.66;;;17.02;51.99
20256;BME280;10286;59.364;18.016;2022-09-09T09:59:21;101751.16;;;17.62;50.00
20256;BME280;10286;59.364;18.016;2022-09-09T10:01:50;101738.22;;;19.39;45.68
20256;BME280;10286;59.364;18.016;2022-09-09T10:04:19;101736.69;;;18.52;47.93
20256;BME280;10286;59.364;18.016;2022-09-09T10:06:54;101733.41;;;18.06;48.08
20256;BME280;10286;59.364;18.016;2022-09-09T10:09:24;101746.75;;;18.58;48.05
20256;BME280;10286;59.364;18.016;2022-09-09T10:11:55;101731.22;;;19.46;46.12
20256;BME280;10286;59.364;18.016;2022-09-09T10:14:38;101726.63;;;19.80;45.46
20256;BME280;10286;59.364;18.016;2022-09-09T10:17:13;101731.56;;;21.42;42.15
20256;BME280;10286;59.364;18.016;2022-09-09T10:19:51;101724.34;;;22.04;40.04
20256;BME280;10286;59.364;18.016;2022-09-09T10:22:27;101733.16;;;19.77;43.91
20256;BME280;10286;59.364;18.016;2022-09-09T10:27:42;101726.88;;;22.05;39.75
20256;BME280;10286;59.364;18.016;2022-09-09T10:30:16;101728.78;;;21.58;38.98
20256;BME280;10286;59.364;18.016;2022-09-09T10:32:46;101736.00;;;21.96;38.19
20256;BME280;10286;59.364;18.016;2022-09-09T10:35:27;101734.88;;;22.72;37.37
20256;BME280;10286;59.364;18.016;2022-09-09T10:38:13;101738.66;;;22.49;36.92
20256;BME280;10286;59.364;18.016;2022-09-09T10:43:31;101736.41;;;22.53;38.34
20256;BME280;10286;59.364;18.016;2022-09-09T10:46:03;101743.97;;;22.12;37.44
20256;BME280;10286;59.364;18.016;2022-09-09T10:48:39;101735.88;;;21.13;40.98
20256;BME280;10286;59.364;18.016;2022-09-09T10:51:12;101733.09;;;20.11;43.98
20256;BME280;10286;59.364;18.016;2022-09-09T10:53:48;101734.75;;;19.46;45.15
20256;BME280;10286;59.364;18.016;2022-09-09T10:56:18;101728.34;;;19.97;44.14
20256;BME280;10286;59.364;18.016;2022-09-09T10:58:51;101720.53;;;21.68;40.50
20256;BME280;10286;59.364;18.016;2022-09-09T11:01:22;101726.47;;;21.63;39.64
20256;BME280;10286;59.364;18.016;2022-09-09T11:03:56;101730.78;;;21.26;39.55
20256;BME280;10286;59.364;18.016;2022-09-09T11:06:28;101738.34;;;21.69;40.07
20256;BME280;10286;59.364;18.016;2022-09-09T11:09:00;101731.00;;;22.16;38.97
20256;BME280;10286;59.364;18.016;2022-09-09T11:11:34;101727.94;;;21.66;38.43
20256;BME280;10286;59.364;18.016;2022-09-09T11:14:05;101728.00;;;21.50;39.39
20256;BME280;10286;59.364;18.016;2022-09-09T11:16:36;101717.06;;;22.35;38.16
20256;BME280;10286;59.364;18.016;2022-09-09T11:19:13;101712.38;;;22.29;37.63
20256;BME280;10286;59.364;18.016;2022-09-09T11:21:43;101721.91;;;22.39;38.35
20256;BME280;10286;59.364;18.016;2022-09-09T11:24:20;101710.44;;;22.37;38.13
20256;BME280;10286;59.364;18.016;2022-09-09T11:26:55;101718.59;;;21.84;39.29
20256;BME280;10286;59.364;18.016;2022-09-09T11:32:22;101719.81;;;22.04;38.24
20256;BME280;10286;59.364;18.016;2022-09-09T11:34:57;101724.06;;;22.95;36.70
20256;BME280;10286;59.364;18.016;2022-09-09T11:40:20;101714.28;;;22.20;38.26
20256;BME280;10286;59.364;18.016;2022-09-09T11:42:48;101700.94;;;21.51;39.42
20256;BME280;10286;59.364;18.016;2022-09-09T11:45:25;101714.47;;;22.41;39.35
20256;BME280;10286;59.364;18.016;2022-09-09T11:47:56;101706.88;;;22.22;38.79
20256;BME280;10286;59.364;18.016;2022-09-09T11:50:30;101709.16;;;22.56;39.57
20256;BME280;10286;59.364;18.016;2022-09-09T11:53:17;101709.69;;;22.29;38.63
20256;BME280;10286;59.364;18.016;2022-09-09T11:56:05;101696.22;;;22.29;39.37
20256;BME280;10286;59.364;18.016;2022-09-09T11:58:37;101707.63;;;22.39;39.16
20256;BME280;10286;59.364;18.016;2022-09-09T12:01:16;101699.88;;;22.13;39.95
20256;BME280;10286;59.364;18.016;2022-09-09T12:06:43;101696.16;;;22.59;39.37
20256;BME280;10286;59.364;18.016;2022-09-09T12:09:16;101705.50;;;23.14;37.69
20256;BME280;10286;59.364;18.016;2022-09-09T12:11:51;101707.72;;;23.40;36.95
20256;BME280;10286;59.364;18.016;2022-09-09T12:14:19;101690.06;;;22.20;39.23
20256;BME280;10286;59.364;18.016;2022-09-09T12:16:49;101688.03;;;21.08;41.93
20256;BME280;10286;59.364;18.016;2022-09-09T12:19:18;101700.19;;;19.93;45.43
20256;BME280;10286;59.364;18.016;2022-09-09T12:21:54;101694.00;;;19.92;45.29
20256;BME280;10286;59.364;18.016;2022-09-09T12:24:35;101695.81;;;20.87;44.32
20256;BME280;10286;59.364;18.016;2022-09-09T12:27:07;101693.53;;;22.51;39.58
20256;BME280;10286;59.364;18.016;2022-09-09T12:29:44;101686.09;;;21.33;41.79
20256;BME280;10286;59.364;18.016;2022-09-09T12:32:19;101692.13;;;21.35;42.47
20256;BME280;10286;59.364;18.016;2022-09-09T12:34:53;101688.97;;;20.85;43.58
20256;BME280;10286;59.364;18.016;2022-09-09T12:37:35;101693.69;;;20.51;43.71
20256;BME280;10286;59.364;18.016;2022-09-09T12:40:03;101694.66;;;21.28;43.21
20256;BME280;10286;59.364;18.016;2022-09-09T12:42:39;101694.34;;;22.15;41.45
20256;BME280;10286;59.364;18.016;2022-09-09T12:45:15;101690.88;;;22.06;40.94
20256;BME280;10286;59.364;18.016;2022-09-09T12:47:44;101684.41;;;20.77;44.15
20256;BME280;10286;59.364;18.016;2022-09-09T12:50:15;101686.81;;;20.57;44.48
20256;BME280;10286;59.364;18.016;2022-09-09T12:52:48;101684.59;;;21.30;42.93
20256;BME280;10286;59.364;18.016;2022-09-09T12:55:19;101686.72;;;22.18;40.97
20256;BME280;10286;59.364;18.016;2022-09-09T12:57:47;101687.28;;;21.91;41.50
20256;BME280;10286;59.364;18.016;2022-09-09T13:00:20;101679.28;;;21.83;41.09
20256;BME280;10286;59.364;18.016;2022-09-09T13:02:51;101679.34;;;21.98;40.76
20256;BME280;10286;59.364;18.016;2022-09-09T13:05:21;101674.25;;;21.19;42.50
20256;BME280;10286;59.364;18.016;2022-09-09T13:07:59;101678.94;;;20.31;44.88
20256;BME280;10286;59.364;18.016;2022-09-09T13:10:30;101683.59;;;19.89;46.56
20256;BME280;10286;59.364;18.016;2022-09-09T13:13:01;101679.91;;;19.82;46.16
20256;BME280;10286;59.364;18.016;2022-09-09T13:15:47;101682.56;;;18.92;47.84